Time,TemperatureF,DewpointF,PressureIn,WindDirection,WindDirectionDegrees,WindSpeedMPH,WindSpeedGustMPH,Humidity,HourlyPrecipIn,Conditions,Clouds,dailyrainin,SoftwareType,DateUTC
2013-10-26 00:05:00,64.1,59.5,30.23,East,99,2.0,3.0,85,0.00,,,0.00,Wunderground v.1.15,2013-10-26 04:05:00,
2013-10-26 00:10:00,64.2,59.3,30.23,East,101,2.0,3.0,84,0.00,,,0.00,Wunderground v.1.15,2013-10-26 04:10:00,
2013-10-26 00:12:00,64.2,60.0,30.23,East,101,3.0,4.0,86,0.00,,,0.00,weatherlink.com 1.10,2013-10-26 04:12:00,
2013-10-26 00:15:00,64.1,59.2,30.23,East,95,2.0,3.0,84,0.00,,,0.00,Wunderground v.1.15,2013-10-26 04:15:00,
2013-10-26 00:20:00,64.0,59.1,30.22,ESE,103,2.0,3.0,84,0.00,,,0.00,Wunderground v.1.15,2013-10-26 04:20:00,
2013-10-26 00:27:00,63.7,59.0,30.23,East,99,1.0,4.0,86,0.00,,,0.00,weatherlink.com 1.10,2013-10-26 04:27:00,
2013-10-26 00:35:00,63.3,59.4,30.22,East,99,1.0,1.0,87,0.00,,,0.00,Wunderground v.1.15,2013-10-26 04:35:00,
2013-10-26 00:43:00,63.0,59.0,30.22,East,97,0.0,2.0,87,0.00,,,0.00,weatherlink.com 1.10,2013-10-26 04:43:00,
2013-10-26 00:50:00,62.7,59.1,30.22,East,97,0.0,1.0,88,0.00,,,0.00,Wunderground v.1.15,2013-10-26 04:50:00,
2013-10-26 00:55:00,62.6,59.6,30.21,East,98,0.0,1.0,90,0.00,,,0.00,Wunderground v.1.15,2013-10-26 04:55:00,
2013-10-26 01:00:00,62.5,59.5,30.21,ESE,105,1.0,1.0,90,0.00,,,0.00,Wunderground v.1.15,2013-10-26 05:00:00,
2013-10-26 01:10:00,62.2,59.2,30.21,East,97,1.0,1.0,90,0.00,,,0.00,Wunderground v.1.15,2013-10-26 05:10:00,
2013-10-26 01:20:00,61.8,58.8,30.21,East,98,1.0,1.0,90,0.00,,,0.00,Wunderground v.1.15,2013-10-26 05:20:00,
2013-10-26 01:25:00,61.6,58.3,30.21,East,101,1.0,1.0,89,0.00,,,0.00,Wunderground v.1.15,2013-10-26 05:25:00,
2013-10-26 01:30:00,61.3,58.0,30.21,East,101,0.0,0.0,89,0.00,,,0.00,Wunderground v.1.15,2013-10-26 05:30:00,
2013-10-26 01:40:00,60.9,58.3,30.21,East,101,0.0,0.0,91,0.00,,,0.00,Wunderground v.1.15,2013-10-26 05:40:00,
2013-10-26 01:45:00,60.5,57.6,30.21,East,101,0.0,0.0,90,0.00,,,0.00,Wunderground v.1.15,2013-10-26 05:45:00,
2013-10-26 01:55:00,59.4,56.8,30.20,East,101,0.0,1.0,91,0.00,,,0.00,Wunderground v.1.15,2013-10-26 05:55:00,
2013-10-26 02:00:00,59.0,56.7,30.20,ESE,102,0.0,0.0,92,0.00,,,0.00,Wunderground v.1.15,2013-10-26 06:00:00,
2013-10-26 02:10:00,58.4,56.4,30.20,East,101,0.0,0.0,93,0.00,,,0.00,Wunderground v.1.15,2013-10-26 06:10:00,
2013-10-26 02:15:00,58.2,56.0,30.20,ESE,102,0.0,0.0,93,0.00,,,0.00,weatherlink.com 1.10,2013-10-26 06:15:00,
2013-10-26 02:25:00,57.8,55.8,30.19,East,101,0.0,0.0,93,0.00,,,0.00,Wunderground v.1.15,2013-10-26 06:25:00,
2013-10-26 02:30:00,57.7,56.0,30.19,ESE,102,0.0,0.0,94,0.00,,,0.00,Wunderground v.1.15,2013-10-26 06:30:00,
2013-10-26 02:40:00,57.4,55.7,30.18,East,101,0.0,0.0,94,0.00,,,0.00,Wunderground v.1.15,2013-10-26 06:40:00,
2013-10-26 02:46:00,57.9,57.0,30.18,East,101,1.0,1.0,96,0.00,,,0.00,weatherlink.com 1.10,2013-10-26 06:46:00,
2013-10-26 02:55:00,58.9,57.8,30.18,East,101,0.0,1.0,96,0.00,,,0.00,Wunderground v.1.15,2013-10-26 06:55:00,
2013-10-26 03:00:00,58.6,56.9,30.18,East,94,0.0,0.0,94,0.00,,,0.00,Wunderground v.1.15,2013-10-26 07:00:00,
2013-10-26 03:10:00,57.8,55.8,30.18,East,94,0.0,0.0,93,0.00,,,0.00,Wunderground v.1.15,2013-10-26 07:10:00,
2013-10-26 03:15:00,57.4,55.7,30.17,East,94,0.0,0.0,94,0.00,,,0.00,Wunderground v.1.15,2013-10-26 07:15:00,
2013-10-26 03:25:00,56.9,55.2,30.18,East,94,0.0,0.0,94,0.00,,,0.00,Wunderground v.1.15,2013-10-26 07:25:00,
2013-10-26 03:30:00,56.6,54.9,30.18,East,94,0.0,0.0,94,0.00,,,0.00,Wunderground v.1.15,2013-10-26 07:30:00,
2013-10-26 03:40:00,56.3,54.9,30.18,East,94,0.0,0.0,95,0.00,,,0.00,Wunderground v.1.15,2013-10-26 07:40:00,
2013-10-26 03:45:00,56.2,54.8,30.18,East,94,0.0,0.0,95,0.00,,,0.00,Wunderground v.1.15,2013-10-26 07:45:00,
2013-10-26 03:50:00,56.1,54.7,30.18,East,94,0.0,0.0,95,0.00,,,0.00,Wunderground v.1.15,2013-10-26 07:50:00,
2013-10-26 04:00:00,55.9,54.5,30.17,East,94,0.0,0.0,95,0.00,,,0.00,Wunderground v.1.15,2013-10-26 08:00:00,
2013-10-26 04:10:00,55.7,54.3,30.17,East,94,0.0,0.0,95,0.00,,,0.00,Wunderground v.1.15,2013-10-26 08:10:00,
2013-10-26 04:15:00,55.6,54.2,30.17,East,93,0.0,0.0,95,0.00,,,0.00,Wunderground v.1.15,2013-10-26 08:15:00,
2013-10-26 04:25:00,55.4,54.3,30.17,East,94,0.0,0.0,96,0.00,,,0.00,Wunderground v.1.15,2013-10-26 08:25:00,
2013-10-26 04:30:00,55.4,54.3,30.17,East,94,0.0,0.0,96,0.00,,,0.00,Wunderground v.1.15,2013-10-26 08:30:00,
2013-10-26 04:40:00,55.3,54.2,30.17,East,94,0.0,0.0,96,0.00,,,0.00,Wunderground v.1.15,2013-10-26 08:40:00,
2013-10-26 04:45:00,56.0,55.4,30.16,East,94,0.0,0.0,98,0.00,,,0.00,Wunderground v.1.15,2013-10-26 08:45:00,
2013-10-26 04:50:00,56.5,55.9,30.16,East,94,0.0,0.0,98,0.00,,,0.00,Wunderground v.1.15,2013-10-26 08:50:00,
2013-10-26 04:55:00,56.5,55.7,30.16,East,94,0.0,0.0,97,0.00,,,0.00,Wunderground v.1.15,2013-10-26 08:55:00,
2013-10-26 05:00:00,56.1,55.0,30.16,East,94,0.0,0.0,96,0.00,,,0.00,Wunderground v.1.15,2013-10-26 09:00:00,
2013-10-26 05:10:00,57.2,56.6,30.16,ESE,102,1.0,1.0,98,0.00,,,0.00,Wunderground v.1.15,2013-10-26 09:10:00,
2013-10-26 05:18:00,57.5,57.0,30.16,ESE,105,2.0,2.0,97,0.00,,,0.00,weatherlink.com 1.10,2013-10-26 09:18:00,
2013-10-26 05:25:00,57.7,56.9,30.16,East,98,1.0,1.0,97,0.00,,,0.00,Wunderground v.1.15,2013-10-26 09:25:00,
2013-10-26 05:30:00,57.5,56.4,30.16,East,91,1.0,1.0,96,0.00,,,0.00,Wunderground v.1.15,2013-10-26 09:30:00,
2013-10-26 05:40:00,57.8,57.0,30.17,East,96,0.0,0.0,97,0.00,,,0.00,Wunderground v.1.15,2013-10-26 09:40:00,
2013-10-26 05:45:00,57.7,56.6,30.17,East,96,1.0,1.0,96,0.00,,,0.00,Wunderground v.1.15,2013-10-26 09:45:00,
2013-10-26 05:55:00,57.5,56.1,30.17,East,101,0.0,1.0,95,0.00,,,0.00,Wunderground v.1.15,2013-10-26 09:55:00,
2013-10-26 06:04:00,57.4,56.0,30.17,ESE,102,0.0,1.0,96,0.00,,,0.00,weatherlink.com 1.10,2013-10-26 10:04:00,
2013-10-26 06:10:00,57.1,55.7,30.17,East,98,0.0,0.0,95,0.00,,,0.00,Wunderground v.1.15,2013-10-26 10:10:00,
2013-10-26 06:15:00,56.3,54.6,30.17,East,98,0.0,0.0,94,0.00,,,0.00,Wunderground v.1.15,2013-10-26 10:15:00,
2013-10-26 06:20:00,55.8,54.1,30.18,East,98,0.0,0.0,94,0.00,,,0.00,Wunderground v.1.15,2013-10-26 10:20:00,
2013-10-26 06:30:00,55.1,53.7,30.18,East,98,0.0,0.0,95,0.00,,,0.00,Wunderground v.1.15,2013-10-26 10:30:00,
2013-10-26 06:40:00,55.1,54.0,30.18,East,96,0.0,0.0,96,0.00,,,0.00,Wunderground v.1.15,2013-10-26 10:40:00,
2013-10-26 06:45:00,55.3,54.5,30.18,East,98,0.0,0.0,97,0.00,,,0.00,Wunderground v.1.15,2013-10-26 10:45:00,
2013-10-26 06:50:00,55.7,54.9,30.18,East,96,0.0,0.0,97,0.00,,,0.00,Wunderground v.1.15,2013-10-26 10:50:00,
2013-10-26 06:55:00,55.9,55.1,30.18,East,96,0.0,0.0,97,0.00,,,0.00,Wunderground v.1.15,2013-10-26 10:55:00,
2013-10-26 07:00:00,56.1,55.3,30.18,East,96,0.0,1.0,97,0.00,,,0.00,Wunderground v.1.15,2013-10-26 11:00:00,
2013-10-26 07:10:00,55.8,54.7,30.19,East,94,0.0,0.0,96,0.00,,,0.00,Wunderground v.1.15,2013-10-26 11:10:00,
2013-10-26 07:19:00,56.2,55.0,30.19,ESE,104,2.0,3.0,97,0.00,,,0.00,weatherlink.com 1.10,2013-10-26 11:19:00,
2013-10-26 07:25:00,56.8,56.0,30.19,East,98,1.0,2.0,97,0.00,,,0.00,Wunderground v.1.15,2013-10-26 11:25:00,
2013-10-26 07:30:00,56.9,56.1,30.19,East,94,0.0,1.0,97,0.00,,,0.00,Wunderground v.1.15,2013-10-26 11:30:00,
2013-10-26 07:40:00,56.8,55.7,30.20,East,98,1.0,1.0,96,0.00,,,0.00,Wunderground v.1.15,2013-10-26 11:40:00,
2013-10-26 07:45:00,56.8,55.7,30.20,East,98,1.0,1.0,96,0.00,,,0.00,Wunderground v.1.15,2013-10-26 11:45:00,
2013-10-26 07:50:00,56.4,54.7,30.20,East,98,0.0,0.0,94,0.00,,,0.00,Wunderground v.1.15,2013-10-26 11:50:00,
2013-10-26 08:00:00,56.8,55.7,30.20,East,99,0.0,1.0,96,0.00,,,0.00,Wunderground v.1.15,2013-10-26 12:00:00,
2013-10-26 08:10:00,57.0,55.9,30.21,ESE,102,0.0,1.0,96,0.00,,,0.00,Wunderground v.1.15,2013-10-26 12:10:00,
2013-10-26 08:15:00,57.2,56.1,30.20,ESE,114,1.0,2.0,96,0.00,,,0.00,Wunderground v.1.15,2013-10-26 12:15:00,
2013-10-26 08:20:00,57.3,56.0,30.20,ESE,106,1.0,2.0,95,0.00,,,0.00,weatherlink.com 1.10,2013-10-26 12:20:00,
2013-10-26 08:30:00,57.5,56.1,30.20,East,100,1.0,1.0,95,0.00,,,0.00,Wunderground v.1.15,2013-10-26 12:30:00,
2013-10-26 08:35:00,57.7,56.0,30.20,ESE,115,3.0,3.0,95,0.00,,,0.00,weatherlink.com 1.10,2013-10-26 12:35:00,
2013-10-26 08:45:00,57.9,56.2,30.21,ESE,108,1.0,2.0,94,0.00,,,0.00,Wunderground v.1.15,2013-10-26 12:45:00,
2013-10-26 08:50:00,58.2,56.0,30.21,East,101,3.0,3.0,94,0.00,,,0.00,weatherlink.com 1.10,2013-10-26 12:50:00,
2013-10-26 09:00:00,59.1,56.8,30.22,ESE,103,2.0,2.0,92,0.00,,,0.00,Wunderground v.1.15,2013-10-26 13:00:00,
2013-10-26 09:06:00,59.3,57.0,30.22,ESE,110,2.0,3.0,92,0.00,,,0.00,weatherlink.com 1.10,2013-10-26 13:06:00,
2013-10-26 09:15:00,59.9,57.6,30.23,East,97,1.0,1.0,92,0.00,,,0.00,Wunderground v.1.15,2013-10-26 13:15:00,
2013-10-26 09:20:00,60.6,58.0,30.22,ESE,105,3.0,4.0,92,0.00,,,0.00,weatherlink.com 1.10,2013-10-26 13:20:00,
2013-10-26 09:30:00,61.9,58.9,30.23,SE,143,2.0,3.0,90,0.00,,,0.00,Wunderground v.1.15,2013-10-26 13:30:00,
2013-10-26 09:36:00,62.5,59.0,30.22,ESE,107,1.0,5.0,87,0.00,,,0.00,weatherlink.com 1.10,2013-10-26 13:36:00,
2013-10-26 09:45:00,63.0,58.7,30.23,ESE,106,2.0,3.0,86,0.00,,,0.00,Wunderground v.1.15,2013-10-26 13:45:00,
2013-10-26 09:50:00,63.5,59.2,30.22,ESE,105,2.0,4.0,86,0.00,,,0.00,Wunderground v.1.15,2013-10-26 13:50:00,
2013-10-26 10:00:00,64.6,59.0,30.23,ESE,110,3.0,3.0,82,0.00,,,0.00,Wunderground v.1.15,2013-10-26 14:00:00,
2013-10-26 10:07:00,65.3,60.0,30.23,ESE,102,2.0,7.0,84,0.00,,,0.00,weatherlink.com 1.10,2013-10-26 14:07:00,
2013-10-26 10:15:00,65.7,59.0,30.23,East,97,3.0,4.0,79,0.00,,,0.00,Wunderground v.1.15,2013-10-26 14:15:00,
2013-10-26 10:20:00,66.3,59.2,30.23,ESE,110,3.0,3.0,78,0.00,,,0.00,Wunderground v.1.15,2013-10-26 14:20:00,
2013-10-26 10:25:00,66.8,59.0,30.23,ESE,115,3.0,3.0,76,0.00,,,0.00,Wunderground v.1.15,2013-10-26 14:25:00,
2013-10-26 10:30:00,67.2,58.6,30.23,ESE,108,3.0,3.0,74,0.00,,,0.00,Wunderground v.1.15,2013-10-26 14:30:00,
2013-10-26 10:38:00,68.2,60.0,30.23,ESE,105,2.0,8.0,74,0.00,,,0.00,weatherlink.com 1.10,2013-10-26 14:38:00,
2013-10-26 10:45:00,69.0,60.0,30.23,ESE,112,2.0,3.0,73,0.00,,,0.00,Wunderground v.1.15,2013-10-26 14:45:00,
2013-10-26 10:50:00,69.5,60.1,30.23,East,93,2.0,2.0,72,0.00,,,0.00,Wunderground v.1.15,2013-10-26 14:50:00,
2013-10-26 10:55:00,69.8,59.2,30.23,East,94,3.0,3.0,69,0.00,,,0.00,Wunderground v.1.15,2013-10-26 14:55:00,
2013-10-26 11:00:00,70.5,59.8,30.23,ESE,111,3.0,3.0,69,0.00,,,0.00,Wunderground v.1.15,2013-10-26 15:00:00,
2013-10-26 11:08:00,70.9,60.0,30.23,ESE,105,7.0,9.0,68,0.00,,,0.00,weatherlink.com 1.10,2013-10-26 15:08:00,
2013-10-26 11:15:00,71.1,58.3,30.23,East,84,4.0,4.0,64,0.00,,,0.00,Wunderground v.1.15,2013-10-26 15:15:00,
2013-10-26 11:23:00,71.7,59.0,30.23,ESE,110,1.0,6.0,64,0.00,,,0.00,weatherlink.com 1.10,2013-10-26 15:23:00,
2013-10-26 11:30:00,72.3,59.4,30.23,ESE,102,2.0,2.0,64,0.00,,,0.00,Wunderground v.1.15,2013-10-26 15:30:00,
2013-10-26 11:39:00,72.7,58.0,30.22,ESE,108,2.0,5.0,61,0.00,,,0.00,weatherlink.com 1.10,2013-10-26 15:39:00,
2013-10-26 11:45:00,72.8,59.0,30.22,ESE,120,2.0,3.0,62,0.00,,,0.00,Wunderground v.1.15,2013-10-26 15:45:00,
2013-10-26 11:54:00,73.4,58.0,30.22,East,99,2.0,4.0,59,0.00,,,0.00,weatherlink.com 1.10,2013-10-26 15:54:00,
2013-10-26 12:00:00,73.5,59.2,30.22,ESE,113,2.0,2.0,61,0.00,,,0.00,Wunderground v.1.15,2013-10-26 16:00:00,
2013-10-26 12:10:00,73.6,58.0,30.21,ESE,111,0.0,4.0,58,0.00,,,0.00,weatherlink.com 1.10,2013-10-26 16:10:00,
2013-10-26 12:15:00,73.8,59.5,30.21,ESE,110,1.0,2.0,61,0.00,,,0.00,Wunderground v.1.15,2013-10-26 16:15:00,
2013-10-26 12:20:00,74.2,58.5,30.21,ESE,105,1.0,2.0,58,0.00,,,0.00,Wunderground v.1.15,2013-10-26 16:20:00,
2013-10-26 12:25:00,74.4,58.0,30.21,East,98,1.0,3.0,56,0.00,,,0.00,weatherlink.com 1.10,2013-10-26 16:25:00,
2013-10-26 12:30:00,74.8,59.0,30.21,East,100,1.0,2.0,58,0.00,,,0.00,Wunderground v.1.15,2013-10-26 16:30:00,
2013-10-26 12:40:00,74.8,57.5,30.20,ESE,103,1.0,2.0,55,0.00,,,0.00,Wunderground v.1.15,2013-10-26 16:40:00,
2013-10-26 12:45:00,75.8,57.4,30.20,East,89,0.0,1.0,53,0.00,,,0.00,Wunderground v.1.15,2013-10-26 16:45:00,
2013-10-26 12:50:00,75.8,60.0,30.20,NNE,33,1.0,1.0,58,0.00,,,0.00,Wunderground v.1.15,2013-10-26 16:50:00,
2013-10-26 12:55:00,76.4,57.0,30.19,NNE,33,1.0,4.0,51,0.00,,,0.00,weatherlink.com 1.10,2013-10-26 16:55:00,
2013-10-26 13:05:00,75.9,53.0,30.19,ESE,110,2.0,4.0,45,0.00,,,0.00,Wunderground v.1.15,2013-10-26 17:05:00,
2013-10-26 13:11:00,75.6,54.0,30.19,ESE,117,2.0,6.0,47,0.00,,,0.00,weatherlink.com 1.10,2013-10-26 17:11:00,
2013-10-26 13:20:00,75.5,52.1,30.18,ESE,110,3.0,4.0,44,0.00,,,0.00,Wunderground v.1.15,2013-10-26 17:20:00,
2013-10-26 13:26:00,75.6,52.0,30.17,East,86,1.0,6.0,44,0.00,,,0.00,weatherlink.com 1.10,2013-10-26 17:26:00,
2013-10-26 13:35:00,76.1,55.0,30.17,ESE,110,2.0,2.0,48,0.00,,,0.00,Wunderground v.1.15,2013-10-26 17:35:00,
2013-10-26 13:41:00,77.0,55.0,30.16,NE,46,0.0,3.0,47,0.00,,,0.00,weatherlink.com 1.10,2013-10-26 17:41:00,
2013-10-26 13:50:00,76.8,55.0,30.16,ENE,70,1.0,1.0,47,0.00,,,0.00,Wunderground v.1.15,2013-10-26 17:50:00,
2013-10-26 13:56:00,76.5,55.0,30.16,SE,130,3.0,8.0,47,0.00,,,0.00,weatherlink.com 1.10,2013-10-26 17:56:00,
2013-10-26 14:05:00,76.6,55.4,30.15,East,101,2.0,3.0,48,0.00,,,0.00,Wunderground v.1.15,2013-10-26 18:05:00,
2013-10-26 14:10:00,76.6,53.7,30.15,ESE,117,2.0,2.0,45,0.00,,,0.00,Wunderground v.1.15,2013-10-26 18:10:00,
2013-10-26 14:20:00,76.7,52.5,30.15,East,90,2.0,2.0,43,0.00,,,0.00,Wunderground v.1.15,2013-10-26 18:20:00,
2013-10-26 14:25:00,76.7,51.2,30.15,ESE,115,2.0,7.0,41,0.00,,,0.00,Wunderground v.1.15,2013-10-26 18:25:00,
2013-10-26 14:30:00,76.4,51.0,30.15,East,96,4.0,4.0,41,0.00,,,0.00,Wunderground v.1.15,2013-10-26 18:30:00,
2013-10-26 14:40:00,77.0,50.8,30.14,East,98,1.0,1.0,40,0.00,,,0.00,Wunderground v.1.15,2013-10-26 18:40:00,
2013-10-26 14:45:00,77.6,54.6,30.14,East,82,1.0,1.0,45,0.00,,,0.00,Wunderground v.1.15,2013-10-26 18:45:00,
2013-10-26 14:50:00,77.4,56.7,30.14,ESE,108,1.0,4.0,49,0.00,,,0.00,Wunderground v.1.15,2013-10-26 18:50:00,
2013-10-26 14:55:00,77.0,52.1,30.14,East,100,3.0,4.0,42,0.00,,,0.00,Wunderground v.1.15,2013-10-26 18:55:00,
2013-10-26 15:00:00,77.4,53.8,30.14,East,101,2.0,3.0,44,0.00,,,0.00,Wunderground v.1.15,2013-10-26 19:00:00,
2013-10-26 15:10:00,77.3,53.7,30.13,East,100,3.0,5.0,44,0.00,,,0.00,Wunderground v.1.15,2013-10-26 19:10:00,
2013-10-26 15:15:00,77.3,53.1,30.13,ESE,107,2.0,5.0,43,0.00,,,0.00,Wunderground v.1.15,2013-10-26 19:15:00,
2013-10-26 15:20:00,77.2,53.0,30.13,ESE,107,2.0,2.0,43,0.00,,,0.00,Wunderground v.1.15,2013-10-26 19:20:00,
2013-10-26 15:25:00,77.2,53.0,30.13,East,81,2.0,2.0,43,0.00,,,0.00,Wunderground v.1.15,2013-10-26 19:25:00,
2013-10-26 15:30:00,77.2,54.2,30.13,East,101,2.0,4.0,45,0.00,,,0.00,Wunderground v.1.15,2013-10-26 19:30:00,
2013-10-26 15:40:00,77.0,52.1,30.13,ESE,102,4.0,7.0,42,0.00,,,0.00,Wunderground v.1.15,2013-10-26 19:40:00,
2013-10-26 15:45:00,77.0,54.0,30.13,ESE,115,4.0,7.0,45,0.00,,,0.00,Wunderground v.1.15,2013-10-26 19:45:00,
2013-10-26 15:55:00,76.8,55.0,30.12,East,94,4.0,4.0,47,0.00,,,0.00,Wunderground v.1.15,2013-10-26 19:55:00,
2013-10-26 16:00:00,77.0,54.0,30.12,ESE,105,3.0,3.0,45,0.00,,,0.00,Wunderground v.1.15,2013-10-26 20:00:00,
2013-10-26 16:10:00,77.2,56.0,30.12,ESE,119,2.0,7.0,48,0.00,,,0.00,Wunderground v.1.15,2013-10-26 20:10:00,
2013-10-26 16:15:00,76.9,53.9,30.12,ESE,111,4.0,7.0,45,0.00,,,0.00,Wunderground v.1.15,2013-10-26 20:15:00,
2013-10-26 16:20:00,76.9,54.5,30.12,SE,127,5.0,5.0,46,0.00,,,0.00,Wunderground v.1.15,2013-10-26 20:20:00,
2013-10-26 16:28:00,76.9,56.0,30.11,ESE,113,4.0,4.0,49,0.00,,,0.00,weatherlink.com 1.10,2013-10-26 20:28:00,
2013-10-26 16:35:00,76.8,53.8,30.11,ESE,110,5.0,8.0,45,0.00,,,0.00,Wunderground v.1.15,2013-10-26 20:35:00,
2013-10-26 16:40:00,76.7,55.0,30.11,East,85,5.0,5.0,47,0.00,,,0.00,Wunderground v.1.15,2013-10-26 20:40:00,
2013-10-26 16:50:00,76.6,53.1,30.12,SE,127,4.0,6.0,44,0.00,,,0.00,Wunderground v.1.15,2013-10-26 20:50:00,
2013-10-26 16:55:00,76.5,53.0,30.12,SE,136,5.0,6.0,44,0.00,,,0.00,Wunderground v.1.15,2013-10-26 20:55:00,
2013-10-26 17:00:00,76.6,53.7,30.12,East,99,5.0,5.0,45,0.00,,,0.00,Wunderground v.1.15,2013-10-26 21:00:00,
2013-10-26 17:10:00,76.4,53.5,30.12,SE,130,4.0,4.0,45,0.00,,,0.00,Wunderground v.1.15,2013-10-26 21:10:00,
2013-10-26 17:20:00,76.2,53.3,30.12,ESE,110,4.0,6.0,45,0.00,,,0.00,Wunderground v.1.15,2013-10-26 21:20:00,
2013-10-26 17:25:00,76.0,51.9,30.12,ESE,112,5.0,6.0,43,0.00,,,0.00,Wunderground v.1.15,2013-10-26 21:25:00,
2013-10-26 17:30:00,75.9,50.5,30.12,ESE,121,5.0,6.0,41,0.00,,,0.00,Wunderground v.1.15,2013-10-26 21:30:00,
2013-10-26 17:40:00,75.7,51.0,30.12,ESE,107,5.0,5.0,42,0.00,,,0.00,Wunderground v.1.15,2013-10-26 21:40:00,
2013-10-26 17:45:00,75.5,54.0,30.11,ESE,102,6.0,7.0,48,0.00,,,0.00,weatherlink.com 1.10,2013-10-26 21:45:00,
2013-10-26 17:55:00,75.1,52.3,30.11,East,97,4.0,6.0,45,0.00,,,0.00,Wunderground v.1.15,2013-10-26 21:55:00,
2013-10-26 18:01:00,74.9,53.0,30.11,ESE,113,5.0,5.0,47,0.00,,,0.00,weatherlink.com 1.10,2013-10-26 22:01:00,
2013-10-26 18:10:00,74.5,53.5,30.11,ESE,104,3.0,4.0,48,0.00,,,0.00,Wunderground v.1.15,2013-10-26 22:10:00,
2013-10-26 18:15:00,74.3,54.5,30.11,ESE,104,3.0,3.0,50,0.00,,,0.00,Wunderground v.1.15,2013-10-26 22:15:00,
2013-10-26 18:20:00,74.1,53.7,30.11,ESE,114,2.0,3.0,49,0.00,,,0.00,Wunderground v.1.15,2013-10-26 22:20:00,
2013-10-26 18:30:00,73.5,55.3,30.11,ESE,117,2.0,3.0,53,0.00,,,0.00,Wunderground v.1.15,2013-10-26 22:30:00,
2013-10-26 18:40:00,72.9,55.8,30.11,ESE,102,2.0,2.0,55,0.00,,,0.00,Wunderground v.1.15,2013-10-26 22:40:00,
2013-10-26 18:45:00,72.5,54.9,30.12,East,100,1.0,1.0,54,0.00,,,0.00,Wunderground v.1.15,2013-10-26 22:45:00,
2013-10-26 18:50:00,72.2,55.1,30.12,East,99,1.0,1.0,55,0.00,,,0.00,Wunderground v.1.15,2013-10-26 22:50:00,
2013-10-26 18:55:00,71.8,56.7,30.12,East,99,0.0,0.0,59,0.00,,,0.00,Wunderground v.1.15,2013-10-26 22:55:00,
2013-10-26 19:00:00,71.4,56.8,30.12,East,98,0.0,0.0,60,0.00,,,0.00,Wunderground v.1.15,2013-10-26 23:00:00,
2013-10-26 19:10:00,70.1,56.5,30.12,East,98,0.0,0.0,62,0.00,,,0.00,Wunderground v.1.15,2013-10-26 23:10:00,
2013-10-26 19:19:00,69.1,55.0,30.12,East,97,0.0,1.0,61,0.00,,,0.00,weatherlink.com 1.10,2013-10-26 23:19:00,
2013-10-26 19:25:00,69.0,55.4,30.12,East,97,0.0,1.0,62,0.00,,,0.00,Wunderground v.1.15,2013-10-26 23:25:00,
2013-10-26 19:30:00,68.8,56.6,30.12,East,96,0.0,0.0,65,0.00,,,0.00,Wunderground v.1.15,2013-10-26 23:30:00,
2013-10-26 19:40:00,67.8,56.4,30.12,East,96,0.0,0.0,67,0.00,,,0.00,Wunderground v.1.15,2013-10-26 23:40:00,
2013-10-26 19:45:00,66.8,56.3,30.12,East,96,0.0,0.0,69,0.00,,,0.00,Wunderground v.1.15,2013-10-26 23:45:00,
2013-10-26 19:55:00,65.3,56.0,30.13,East,96,0.0,0.0,72,0.00,,,0.00,Wunderground v.1.15,2013-10-26 23:55:00,
2013-10-26 20:00:00,64.7,55.8,30.13,East,96,0.0,0.0,73,0.00,,,0.00,Wunderground v.1.15,2013-10-27 00:00:00,
2013-10-26 20:05:00,64.2,56.0,30.13,East,96,0.0,0.0,74,0.00,,,0.00,weatherlink.com 1.10,2013-10-27 00:05:00,
2013-10-26 20:15:00,63.3,55.6,30.13,East,96,0.0,0.0,76,0.00,,,0.00,Wunderground v.1.15,2013-10-27 00:15:00,
2013-10-26 20:20:00,63.0,55.7,30.13,East,96,0.0,0.0,77,0.00,,,0.00,Wunderground v.1.15,2013-10-27 00:20:00,
2013-10-26 20:25:00,62.6,55.6,30.13,East,96,0.0,0.0,78,0.00,,,0.00,Wunderground v.1.15,2013-10-27 00:25:00,
2013-10-26 20:30:00,62.2,55.3,30.13,East,96,0.0,0.0,78,0.00,,,0.00,Wunderground v.1.15,2013-10-27 00:30:00,
2013-10-26 20:36:00,61.8,55.0,30.14,East,96,0.0,0.0,79,0.00,,,0.00,weatherlink.com 1.10,2013-10-27 00:36:00,
2013-10-26 20:45:00,61.3,55.1,30.14,East,96,0.0,0.0,80,0.00,,,0.00,Wunderground v.1.15,2013-10-27 00:45:00,
2013-10-26 20:51:00,61.0,55.0,30.14,East,96,0.0,0.0,81,0.00,,,0.00,weatherlink.com 1.10,2013-10-27 00:51:00,
2013-10-26 21:00:00,60.6,55.1,30.15,East,96,0.0,0.0,82,0.00,,,0.00,Wunderground v.1.15,2013-10-27 01:00:00,
2013-10-26 21:06:00,60.5,56.0,30.15,East,96,0.0,0.0,85,0.00,,,0.00,weatherlink.com 1.10,2013-10-27 01:06:00,
2013-10-26 21:15:00,61.7,55.5,30.16,East,94,0.0,0.0,80,0.00,,,0.00,Wunderground v.1.15,2013-10-27 01:15:00,
2013-10-26 21:20:00,62.1,55.5,30.16,East,95,0.0,0.0,79,0.00,,,0.00,Wunderground v.1.15,2013-10-27 01:20:00,
2013-10-26 21:25:00,61.9,55.7,30.16,East,94,0.0,0.0,80,0.00,,,0.00,Wunderground v.1.15,2013-10-27 01:25:00,
2013-10-26 21:30:00,61.6,55.7,30.16,East,94,0.0,0.0,81,0.00,,,0.00,Wunderground v.1.15,2013-10-27 01:30:00,
2013-10-26 21:37:00,61.1,56.0,30.16,East,95,0.0,0.0,82,0.00,,,0.00,weatherlink.com 1.10,2013-10-27 01:37:00,
2013-10-26 21:45:00,60.7,55.5,30.16,East,94,0.0,0.0,83,0.00,,,0.00,Wunderground v.1.15,2013-10-27 01:45:00,
2013-10-26 21:50:00,60.5,56.0,30.16,East,94,0.0,0.0,85,0.00,,,0.00,Wunderground v.1.15,2013-10-27 01:50:00,
2013-10-26 21:55:00,60.3,56.1,30.16,East,95,0.0,0.0,86,0.00,,,0.00,Wunderground v.1.15,2013-10-27 01:55:00,
2013-10-26 22:00:00,60.0,55.8,30.16,East,95,0.0,0.0,86,0.00,,,0.00,Wunderground v.1.15,2013-10-27 02:00:00,
2013-10-26 22:07:00,59.5,56.0,30.16,East,95,0.0,0.0,87,0.00,,,0.00,weatherlink.com 1.10,2013-10-27 02:07:00,
2013-10-26 22:15:00,59.1,55.2,30.17,East,94,0.0,0.0,87,0.00,,,0.00,Wunderground v.1.15,2013-10-27 02:15:00,
2013-10-26 22:20:00,58.9,55.0,30.17,East,95,0.0,0.0,87,0.00,,,0.00,Wunderground v.1.15,2013-10-27 02:20:00,
2013-10-26 22:25:00,58.8,55.3,30.17,East,94,0.0,0.0,88,0.00,,,0.00,Wunderground v.1.15,2013-10-27 02:25:00,
2013-10-26 22:30:00,58.6,55.1,30.17,East,95,0.0,0.0,88,0.00,,,0.00,Wunderground v.1.15,2013-10-27 02:30:00,
2013-10-26 22:38:00,58.3,55.0,30.17,East,95,0.0,0.0,88,0.00,,,0.00,weatherlink.com 1.10,2013-10-27 02:38:00,
2013-10-26 22:45:00,58.1,54.9,30.16,East,94,0.0,0.0,89,0.00,,,0.00,Wunderground v.1.15,2013-10-27 02:45:00,
2013-10-26 22:50:00,58.0,54.8,30.16,East,94,0.0,0.0,89,0.00,,,0.00,Wunderground v.1.15,2013-10-27 02:50:00,
2013-10-26 22:55:00,57.9,54.7,30.16,East,94,0.0,0.0,89,0.00,,,0.00,Wunderground v.1.15,2013-10-27 02:55:00,
2013-10-26 23:00:00,57.9,55.0,30.16,East,94,0.0,0.0,90,0.00,,,0.00,Wunderground v.1.15,2013-10-27 03:00:00,
2013-10-26 23:09:00,58.5,56.0,30.16,East,95,0.0,0.0,92,0.00,,,0.00,weatherlink.com 1.10,2013-10-27 03:09:00,
2013-10-26 23:15:00,58.4,55.8,30.16,East,95,0.0,0.0,91,0.00,,,0.00,Wunderground v.1.15,2013-10-27 03:15:00,
2013-10-26 23:20:00,58.6,56.3,30.16,East,94,0.0,0.0,92,0.00,,,0.00,Wunderground v.1.15,2013-10-27 03:20:00,
2013-10-26 23:25:00,58.6,56.0,30.15,East,94,0.0,0.0,91,0.00,,,0.00,Wunderground v.1.15,2013-10-27 03:25:00,
2013-10-26 23:30:00,58.5,55.9,30.15,East,94,0.0,0.0,91,0.00,,,0.00,Wunderground v.1.15,2013-10-27 03:30:00,
2013-10-26 23:39:00,59.0,57.0,30.14,East,95,0.0,1.0,94,0.00,,,0.00,weatherlink.com 1.10,2013-10-27 03:39:00,
2013-10-26 23:45:00,59.2,56.9,30.14,East,94,0.0,1.0,92,0.00,,,0.00,Wunderground v.1.15,2013-10-27 03:45:00,
2013-10-26 23:54:00,58.4,56.0,30.15,East,94,0.0,1.0,91,0.00,,,0.00,weatherlink.com 1.10,2013-10-27 03:54:00,